Latest Weather Observations for Darwin Harbour

IDD60801

Issued at 6:31 pm CST Saturday 29 April 2017 (issued every 30 minutes, with the page automatically refreshed every 10 minutes)

About weather observations | Map of weather stations | Latest weather observations for NT | Other Formats
Station Details ID: 014072 Name: DARWIN NTC AWS Lat: -12.47 Lon: 130.85 Height: 0.0 m
Data from the previous 72 hours. | See also: Recent months for locations in Northern Territory
Date/Time
CST
Temp
°C
App
Temp
°C
Dew
Point
°C
Rel
Hum
%
Delta-T
°C
Wind Press
QNH
hPa
Press
MSL
hPa
Rain since
9am
mm
Dir  Spd
km/h
Gust
km/h
Spd
kts
Gust
kts
29/06:30pm - - - - - ENE 9 17 5 9 1011.7 1011.6 -
29/06:00pm - - - - - ENE 9 20 5 11 1011.4 1011.3 -
29/05:30pm - - - - - E 15 19 8 10 1010.9 1010.8 -
29/05:00pm - - - - - E 17 20 9 11 1010.5 1010.4 -
29/04:30pm - - - - - E 13 17 7 9 1010.2 1010.1 -
29/04:00pm - - - - - E 15 20 8 11 1010.0 1009.9 -
29/03:30pm - - - - - E 15 22 8 12 1009.9 1009.8 -
29/03:00pm - - - - - E 15 22 8 12 1010.1 1010.0 -
29/02:30pm - - - - - E 19 24 10 13 1010.2 1010.1 -
29/02:00pm - - - - - ESE 17 22 9 12 1010.5 1010.4 -
29/01:30pm - - - - - E 19 26 10 14 1010.9 1010.8 -
29/01:00pm - - - - - E 19 28 10 15 1011.4 1011.3 -
29/12:30pm - - - - - E 20 28 11 15 1012.1 1012.0 -
29/12:00pm - - - - - E 22 32 12 17 1012.4 1012.3 -
29/11:30am - - - - - E 28 33 15 18 1012.9 1012.8 -
29/11:00am - - - - - E 26 33 14 18 1013.1 1013.0 -
29/10:30am - - - - - E 28 35 15 19 1013.2 1013.1 -
29/10:00am - - - - - ESE 24 28 13 15 1013.0 1012.9 -
29/09:30am - - - - - ESE 22 28 12 15 1012.9 1012.8 -
29/09:00am - - - - - ESE 24 30 13 16 1012.6 1012.5 -
29/08:30am - - - - - ESE 20 24 11 13 1012.5 1012.4 -
29/08:00am - - - - - SE 20 26 11 14 1011.9 1011.8 -
29/07:30am - - - - - SE 20 26 11 14 1011.8 1011.7 -
29/07:00am - - - - - E 20 26 11 14 1011.4 1011.3 -
29/06:30am - - - - - E 24 32 13 17 1011.1 1011.0 -
29/06:00am - - - - - ESE 32 39 17 21 1010.7 1010.6 -
29/05:30am - - - - - ESE 28 35 15 19 1010.5 1010.4 -
29/05:00am - - - - - ESE 28 35 15 19 1010.7 1010.6 -
29/04:30am - - - - - ESE 28 33 15 18 1010.8 1010.7 -
29/04:00am - - - - - ESE 24 30 13 16 1010.9 1010.8 -
29/03:30am - - - - - ESE 19 22 10 12 1011.1 1011.0 -
29/03:00am - - - - - E 17 22 9 12 1011.0 1010.9 -
29/02:30am - - - - - ESE 19 24 10 13 1011.1 1011.0 -
29/02:00am - - - - - SE 17 22 9 12 1011.0 1010.9 -
29/01:30am - - - - - SE 15 26 8 14 1011.0 1010.9 -
29/01:00am - - - - - SE 13 19 7 10 1011.2 1011.1 -
29/12:30am - - - - - SSE 17 20 9 11 1011.3 1011.2 -
29/12:00am - - - - - SSW 17 20 9 11 1012.0 1011.9 -
 
Date/Time
CST
Temp
°C
App
Temp
°C
Dew
Point
°C
Rel
Hum
%
Delta-T
°C
Wind Press
QNH
hPa
Press
MSL
hPa
Rain since
9am
mm
Dir  Spd
km/h
Gust
km/h
Spd
kts
Gust
kts
28/11:30pm - - - - - SSW 19 20 10 11 1012.3 1012.2 -
28/11:00pm - - - - - SSW 11 20 6 11 1012.6 1012.5 -
28/10:30pm - - - - - S 9 13 5 7 1012.6 1012.5 -
28/10:00pm - - - - - SSW 11 13 6 7 1013.0 1012.9 -
28/09:30pm - - - - - SSW 9 13 5 7 1013.0 1012.9 -
28/09:00pm - - - - - SSW 4 6 2 3 1013.1 1013.0 -
28/08:30pm - - - - - SSE 7 9 4 5 1012.7 1012.6 -
28/08:00pm - - - - - E 2 6 1 3 1012.2 1012.1 -
28/07:30pm - - - - - ENE 4 9 2 5 1011.8 1011.7 -
28/07:00pm - - - - - NE 4 7 2 4 1011.6 1011.5 -
28/06:30pm - - - - - ENE 4 9 2 5 1011.3 1011.2 -
28/06:00pm - - - - - ENE 2 7 1 4 1011.0 1010.9 -
28/05:30pm - - - - - CALM 0 2 0 1 1010.7 1010.6 -
28/05:00pm - - - - - NNE 4 9 2 5 1010.5 1010.4 -
28/04:30pm - - - - - ENE 11 19 6 10 1010.2 1010.1 -
28/04:00pm - - - - - ENE 15 20 8 11 1010.2 1010.1 -
28/03:30pm - - - - - ENE 17 20 9 11 1010.2 1010.1 -
28/03:00pm - - - - - ENE 15 24 8 13 1010.0 1009.9 -
28/02:30pm - - - - - ENE 13 24 7 13 1010.5 1010.4 -
28/02:00pm - - - - - ESE 7 24 4 13 1010.5 1010.4 -
28/01:30pm - - - - - ENE 13 26 7 14 1011.2 1011.1 -
28/01:00pm - - - - - SW 6 22 3 12 1011.7 1011.6 -
28/12:30pm - - - - - ENE 19 32 10 17 1011.9 1011.8 -
28/12:00pm - - - - - ENE 20 33 11 18 1012.4 1012.3 -
28/11:30am - - - - - ENE 26 39 14 21 1012.6 1012.5 -
28/11:00am - - - - - ENE 26 41 14 22 1012.7 1012.6 -
28/10:30am - - - - - ESE 30 37 16 20 1012.6 1012.5 -
28/10:00am - - - - - ESE 30 37 16 20 1012.5 1012.4 -
28/09:30am - - - - - E 26 32 14 17 1012.7 1012.6 -
28/09:00am - - - - - E 19 24 10 13 1013.0 1012.9 -
28/08:30am - - - - - ESE 28 35 15 19 1012.1 1012.0 -
28/08:00am - - - - - ESE 26 33 14 18 1011.7 1011.6 -
28/07:30am - - - - - ESE 24 32 13 17 1011.4 1011.3 -
28/07:00am - - - - - E 13 19 7 10 1011.6 1011.5 -
28/06:30am - - - - - ENE 13 19 7 10 1011.3 1011.2 -
28/06:00am - - - - - E 20 28 11 15 1010.7 1010.6 -
28/05:30am - - - - - ENE 17 24 9 13 1010.4 1010.3 -
28/05:00am - - - - - E 17 28 9 15 1010.0 1009.9 -
28/04:30am - - - - - E 24 30 13 16 1010.0 1009.9 -
28/04:00am - - - - - E 20 32 11 17 1009.8 1009.7 -
28/03:30am - - - - - ENE 19 24 10 13 1010.2 1010.1 -
28/03:00am - - - - - E 15 20 8 11 1010.3 1010.2 -
28/02:30am - - - - - E 19 24 10 13 1010.3 1010.2 -
28/02:00am - - - - - E 20 28 11 15 1010.1 1010.0 -
28/01:30am - - - - - E 19 26 10 14 1010.1 1010.0 -
28/01:00am - - - - - E 20 30 11 16 1010.1 1010.0 -
28/12:30am - - - - - E 20 28 11 15 1010.8 1010.7 -
28/12:00am - - - - - E 22 28 12 15 1011.1 1011.0 -
 
Date/Time
CST
Temp
°C
App
Temp
°C
Dew
Point
°C
Rel
Hum
%
Delta-T
°C
Wind Press
QNH
hPa
Press
MSL
hPa
Rain since
9am
mm
Dir  Spd
km/h
Gust
km/h
Spd
kts
Gust
kts
27/11:30pm - - - - - E 24 35 13 19 1011.0 1010.9 -
27/11:00pm - - - - - E 22 32 12 17 1010.8 1010.7 -
27/10:30pm - - - - - E 24 35 13 19 1011.2 1011.1 -
27/10:00pm - - - - - E 26 43 14 23 1011.2 1011.1 -
27/09:30pm - - - - - E 32 44 17 24 1011.2 1011.1 -
27/09:00pm - - - - - E 30 44 16 24 1010.7 1010.6 -
27/08:30pm - - - - - E 32 43 17 23 1010.6 1010.5 -
27/08:00pm - - - - - ENE 26 43 14 23 1010.3 1010.2 -
27/07:30pm - - - - - E 22 35 12 19 1009.8 1009.7 -
27/07:00pm - - - - - E 19 28 10 15 1009.5 1009.4 -
27/06:30pm - - - - - E 19 28 10 15 1009.2 1009.1 -
27/06:00pm - - - - - ENE 24 35 13 19 1008.8 1008.7 -
27/05:30pm - - - - - ENE 30 41 16 22 1008.2 1008.1 -
27/05:00pm - - - - - E 26 35 14 19 1008.0 1007.9 -
27/04:30pm - - - - - E 20 28 11 15 1007.6 1007.5 -
27/04:00pm - - - - - ENE 13 19 7 10 1007.8 1007.7 -
27/03:30pm - - - - - E 15 20 8 11 1008.2 1008.1 -
27/03:00pm - - - - - E 11 17 6 9 1008.2 1008.1 -
27/02:30pm - - - - - ENE 15 20 8 11 1008.7 1008.6 -
27/02:00pm - - - - - E 19 28 10 15 1008.7 1008.6 -
27/01:30pm - - - - - ESE 28 35 15 19 1008.6 1008.5 -
27/01:00pm - - - - - ESE 30 41 16 22 1009.2 1009.1 -
27/12:30pm - - - - - SE 28 33 15 18 1009.7 1009.6 -
27/12:00pm - - - - - ESE 24 30 13 16 1010.5 1010.4 -
27/11:30am - - - - - SE 26 32 14 17 1010.5 1010.4 -
27/11:00am - - - - - SE 24 30 13 16 1011.1 1011.0 -
27/10:30am - - - - - SSE 20 30 11 16 1011.2 1011.1 -
27/10:00am - - - - - SE 24 32 13 17 1011.5 1011.4 -
27/09:30am - - - - - SE 32 41 17 22 1010.9 1010.8 -
27/09:00am - - - - - ESE 30 39 16 21 1011.0 1010.9 -
27/08:30am - - - - - SE 32 41 17 22 1010.2 1010.1 -
27/08:00am - - - - - ESE 33 41 18 22 1009.9 1009.8 -
27/07:30am - - - - - ESE 32 43 17 23 1009.7 1009.6 -
27/07:00am - - - - - ESE 33 41 18 22 1009.2 1009.1 -
27/06:30am - - - - - ESE 33 41 18 22 1008.9 1008.8 -
27/06:00am - - - - - ESE 28 35 15 19 1008.7 1008.6 -
27/05:30am - - - - - ESE 22 28 12 15 1008.5 1008.4 -
27/05:00am - - - - - ESE 19 26 10 14 1008.5 1008.4 -
27/04:30am - - - - - ESE 19 26 10 14 1008.7 1008.6 -
27/04:00am - - - - - ESE 26 33 14 18 1008.4 1008.3 -
27/03:30am - - - - - E 17 20 9 11 1009.0 1008.9 -
27/03:00am - - - - - E 17 24 9 13 1009.0 1008.9 -
27/02:30am - - - - - ENE 9 15 5 8 1009.0 1008.9 -
27/02:00am - - - - - ENE 9 17 5 9 1008.9 1008.8 -
27/01:30am - - - - - E 19 24 10 13 1009.2 1009.1 -
27/01:00am - - - - - E 22 28 12 15 1009.2 1009.1 -
27/12:30am - - - - - E 24 30 13 16 1009.3 1009.2 -
27/12:00am - - - - - E 20 26 11 14 1009.5 1009.4 -
 
Date/Time
CST
Temp
°C
App
Temp
°C
Dew
Point
°C
Rel
Hum
%
Delta-T
°C
Wind Press
QNH
hPa
Press
MSL
hPa
Rain since
9am
mm
Dir  Spd
km/h
Gust
km/h
Spd
kts
Gust
kts
26/11:30pm - - - - - E 19 24 10 13 1009.5 1009.4 -
26/11:00pm - - - - - E 17 24 9 13 1009.4 1009.3 -
26/10:30pm - - - - - E 17 22 9 12 1009.4 1009.3 -
26/10:00pm - - - - - E 17 22 9 12 1009.3 1009.2 -
26/09:30pm - - - - - E 19 22 10 12 1009.2 1009.1 -
26/09:00pm - - - - - E 17 22 9 12 1009.1 1009.0 -
26/08:30pm - - - - - E 15 20 8 11 1009.0 1008.9 -
26/08:00pm - - - - - ENE 9 19 5 10 1009.1 1009.0 -
26/07:30pm - - - - - ENE 9 15 5 8 1009.1 1009.0 -
26/07:00pm - - - - - ENE 6 13 3 7 1009.0 1008.9 -

Other Formats:

Comma delimited format used in spreadsheet applications
http://www.bom.gov.au/fwo/IDD60801/IDD60801.95122.axf

JavaScript Object Notation format (JSON) in row-major order
http://www.bom.gov.au/fwo/IDD60801/IDD60801.95122.json